Terminal Aerodrome Forecast
Issued by NWS Knoxville/Tri Cities, TN

Home | Current Version | Previous Version | Text Only | Print | Product List | Glossary On
Versions: 1 2 3 4 5 6 7 8 9 10 11 12 13 14 15 16 17 18 19 20 21 22 23 24 25 26 27 28 29 30 31 32 33 34 35 36
000
FTUS44 KMRX 280525
TAFTYS
TAF
KTYS 280525Z 2806/2906 VRB03KT P6SM BKN120
     FM281000 VRB03KT P6SM SCT035 OVC100
     FM281600 VRB04KT P6SM VCTS SCT035CB BKN100
     FM282000 04006KT 5SM -TSRA BR BKN035CB OVC080
     FM290200 VRB03KT P6SM VCSH BKN040 OVC080=

USA.gov is the U.S. government's official web portal to all federal, state and local government web resources and services.